createdAt,value
2023-04-13T02:29:36.915Z,9.54
2023-04-13T02:44:45.320Z,9.56
2023-04-13T03:39:49.479Z,9.93
2023-04-13T03:41:43.479Z,10.03
2023-04-13T03:43:01.284Z,10.01
2023-04-13T03:47:28.924Z,10.05
2023-04-13T05:40:10.007Z,13.21
2023-04-13T05:41:15.306Z,13.33
2023-04-13T05:42:45.963Z,13.52
2023-04-13T05:44:29.460Z,13.81
2023-04-13T05:45:33.764Z,13.97
2023-04-13T05:46:40.223Z,14.08
2023-04-13T06:35:36.434Z,17.98
2023-04-13T06:36:41.767Z,18.76
2023-04-13T06:37:50.394Z,18.82
2023-04-13T06:40:49.083Z,19.09
2023-04-13T06:47:41.320Z,19.76
2023-04-13T06:48:47.909Z,20.15
2023-04-13T06:49:52.316Z,19.40
2023-04-13T06:50:57.246Z,19.72
2023-04-13T06:52:44.186Z,19.71
2023-04-13T06:55:06.456Z,19.78
2023-04-13T06:56:14.542Z,20.33
2023-04-13T06:58:36.713Z,20.95
2023-04-13T06:59:41.148Z,20.97
2023-04-13T07:00:43.372Z,21.51
2023-04-13T07:01:46.026Z,20.92
2023-04-13T07:02:50.871Z,21.52
2023-04-13T07:03:55.506Z,21.07
2023-04-13T07:05:00.798Z,21.43
2023-04-13T07:06:06.413Z,20.87
2023-04-13T07:07:09.835Z,20.08
2023-04-13T07:08:13.153Z,20.22
2023-04-13T07:09:17.356Z,20.47
2023-04-13T07:10:20.539Z,19.77
2023-04-13T07:11:22.374Z,19.52
2023-04-13T07:12:27.843Z,19.77
2023-04-13T07:13:29.618Z,19.76
2023-04-13T07:14:36.061Z,19.95
2023-04-13T07:15:40.061Z,19.78
2023-04-13T07:16:42.359Z,19.93
2023-04-13T07:17:46.795Z,19.78
2023-04-13T07:18:49.088Z,19.35
2023-04-13T07:19:51.361Z,19.43
2023-04-13T07:20:53.782Z,19.67
2023-04-13T07:22:00.641Z,19.31
2023-04-13T07:23:04.042Z,19.56
2023-04-13T07:24:06.522Z,19.76
2023-04-13T07:25:11.637Z,19.95
2023-04-13T07:26:15.381Z,19.51
2023-04-13T07:27:19.099Z,20.47
2023-04-13T07:28:22.343Z,20.15
2023-04-13T07:29:26.944Z,20.20
2023-04-13T07:30:33.877Z,20.16
2023-04-13T07:31:35.879Z,20.36
2023-04-13T07:32:39.486Z,20.43
2023-04-13T07:33:41.503Z,20.02
2023-04-13T07:34:44.528Z,19.60
2023-04-13T07:35:46.465Z,19.69
2023-04-13T07:36:49.007Z,20.12
2023-04-13T07:37:54.130Z,20.13
2023-04-13T07:38:57.611Z,19.42
2023-04-13T07:40:00.578Z,20.00
2023-04-13T07:41:05.444Z,20.02
2023-04-13T07:42:16.063Z,20.08
2023-04-13T07:43:26.385Z,19.56
2023-04-13T07:44:31.032Z,19.66
2023-04-13T07:45:33.192Z,19.30
2023-04-13T07:46:36.331Z,19.52
2023-04-13T07:47:42.160Z,19.19
2023-04-13T07:48:45.122Z,19.35
2023-04-13T07:50:08.325Z,19.09
2023-04-13T07:51:18.743Z,18.77
2023-04-13T07:52:29.450Z,18.76
2023-04-13T07:53:33.031Z,18.65
2023-04-13T07:54:36.595Z,18.60
2023-04-13T07:55:41.260Z,18.63
2023-04-13T07:56:43.791Z,18.76
2023-04-13T07:57:48.991Z,18.64
2023-04-13T07:58:51.118Z,18.76
2023-04-13T07:59:53.618Z,18.59
2023-04-13T08:00:56.125Z,18.36
2023-04-13T08:01:58.893Z,18.39
2023-04-13T08:03:44.327Z,18.51
2023-04-13T08:04:54.829Z,18.39
2023-04-13T08:06:07.455Z,18.66
2023-04-13T08:07:09.786Z,18.76
2023-04-13T08:08:13.219Z,18.76
2023-04-13T08:09:16.854Z,18.71
2023-04-13T08:10:19.114Z,18.86
2023-04-13T08:11:47.396Z,18.87
2023-04-13T08:12:51.423Z,19.05
2023-04-13T08:13:55.493Z,19.03
2023-04-13T08:14:58.356Z,19.00
2023-04-13T08:16:02.321Z,18.95
2023-04-13T08:17:06.413Z,19.01
2023-04-13T08:18:11.384Z,19.15
2023-04-13T08:21:32.526Z,18.99
2023-04-13T08:25:25.510Z,19.34
2023-04-13T08:31:33.090Z,18.94
2023-04-13T08:35:56.883Z,19.13
2023-04-13T08:36:59.298Z,19.45
2023-04-13T08:38:10.105Z,19.19
2023-04-13T08:39:31.625Z,19.04
2023-04-13T08:40:37.996Z,19.27
2023-04-13T08:41:47.701Z,19.76
2023-04-13T08:43:21.488Z,19.54
2023-04-13T08:44:24.563Z,19.96
2023-04-13T08:45:30.707Z,19.77
2023-04-13T08:48:23.909Z,19.78
2023-04-13T08:49:28.805Z,19.61
2023-04-13T08:50:56.896Z,20.08
2023-04-13T08:52:04.938Z,19.77
2023-04-13T08:53:07.651Z,19.98
2023-04-13T08:54:09.926Z,20.23
2023-04-13T08:55:12.982Z,20.48
2023-04-13T08:56:16.147Z,20.50
2023-04-13T08:57:23.786Z,20.64
2023-04-13T08:58:33.754Z,20.48
2023-04-13T08:59:42.175Z,20.11
2023-04-13T09:00:45.913Z,19.93
2023-04-13T09:01:49.475Z,20.15
2023-04-13T09:03:05.414Z,20.02
2023-04-13T09:04:18.018Z,20.11
2023-04-13T09:05:24.025Z,20.13
2023-04-13T09:06:35.793Z,19.68
2023-04-13T09:07:43.759Z,19.79
2023-04-13T09:08:49.609Z,19.86
2023-04-13T09:09:54.255Z,19.95
2023-04-13T09:10:57.395Z,19.66
2023-04-13T09:11:59.411Z,19.61
2023-04-13T09:13:04.108Z,19.04
2023-04-13T09:14:06.464Z,19.07
2023-04-13T09:15:14.063Z,19.10
2023-04-13T09:16:24.841Z,19.02
2023-04-13T09:17:34.985Z,18.73
2023-04-13T09:18:37.280Z,18.37
2023-04-13T09:19:44.751Z,18.43
2023-04-13T09:20:58.535Z,18.59
2023-04-13T09:24:24.504Z,18.37
2023-04-13T09:25:31.003Z,18.52
2023-04-13T09:37:48.163Z,19.09
2023-04-13T09:40:55.396Z,19.35
2023-04-13T09:53:19.368Z,19.30
2023-04-13T09:54:27.230Z,19.30
2023-04-13T09:55:32.967Z,18.89
2023-04-13T09:56:47.969Z,19.07
2023-04-13T10:00:16.097Z,19.10
2023-04-13T10:01:23.321Z,18.89
2023-04-13T10:02:27.133Z,19.00
2023-04-13T10:03:34.673Z,18.91
2023-04-13T10:04:46.496Z,18.81
2023-04-13T10:05:59.555Z,18.84
2023-04-13T10:08:27.293Z,18.92
2023-04-13T10:12:20.908Z,18.78
2023-04-13T13:11:09.868Z,18.14
2023-04-13T13:12:15.680Z,18.08
2023-04-13T13:16:03.691Z,18.35
2023-04-13T13:17:09.107Z,18.24
2023-04-13T13:18:50.408Z,18.40
2023-04-13T13:20:16.032Z,18.44
2023-04-13T13:21:22.134Z,18.30
2023-04-13T13:22:38.832Z,18.41
2023-04-13T13:24:24.107Z,18.43
2023-04-13T13:26:22.284Z,18.23
2023-04-13T13:27:58.636Z,18.14
2023-04-13T13:31:39.660Z,18.09
2023-04-13T13:33:13.792Z,18.07
2023-04-13T13:38:02.804Z,17.95
2023-04-13T13:44:29.107Z,17.86
2023-04-13T13:45:56.043Z,17.81
2023-04-13T13:47:02.872Z,17.73
2023-04-13T13:48:06.423Z,17.72
2023-04-13T13:57:06.965Z,17.70
2023-04-13T13:58:14.528Z,17.60
2023-04-13T14:01:04.510Z,17.52
2023-04-13T14:02:43.359Z,17.53
2023-04-13T14:07:22.426Z,17.57
2023-04-13T14:15:24.113Z,17.33
2023-04-13T14:16:55.344Z,17.30
2023-04-13T14:19:51.683Z,17.23
2023-04-13T14:22:50.597Z,17.17
2023-04-13T14:24:47.247Z,17.15
2023-04-13T14:26:00.641Z,17.19
2023-04-13T14:27:29.817Z,17.08
2023-04-13T14:28:44.331Z,17.08
2023-04-13T14:31:45.967Z,17.09
2023-04-13T14:33:01.474Z,17.15
2023-04-13T15:00:31.415Z,16.59
2023-04-13T15:01:40.801Z,16.52
2023-04-13T15:02:50.371Z,16.56
2023-04-13T16:00:27.521Z,14.98
